Prachuap Khirikhan, Thailand
Current Conditions -  °F | °C
As of 1:00 AM on Saturday 22 Nov 2014 (Local Time) from VTBU Reporting Station
Haze Haze  
Wind Chill: 77°   Ceiling: Unl
Heat Index: 78°   Visibility: 1.8mi
Dew Point: 72°   Wind: 3mph
Humidity: 83%   Direction: 350°N
Pressure: 29.85"   Gusts: NA
Location:  11.83°N, 99.83°E
Report Text: VTBU 211800Z 35003KT 3000 BR FEW020 SCT300 25/22 Q1011 A2986
Loading
Personal Weather Stations






























Interactive Weather Map New forecast layout! Learn more

10-Day Weather Forecast

Advertisements
Track Severe Weather on mobile